CheckWX is a tool to help pilots better visualize weather data.  It is not intended as a substitute for an official pre-flight weather briefing.

01:18:31 UTC

CYHA METAR
Quaqtaq Airport
Quaqtaq, Canada
Current

5 hours ago

CYHA 232000Z 18030G37KT 1/8SM SN BLSN VV015 M14/M17 A2914 RMK SN8 SNW/CVR MED PACK LAST STFD OBS/NEXT 241200UTC SLP872
Observed
Mar-23 @ 20:00 UTC
Wind
  • 180° at 30 KTS
  • Gusting to 37 KTS
Visibility
13 SM
Flight Rules
LIFR
Conditions
Snow, Blowing Snow
Cloud Levels
  • Vertical visibility at 1,500' AGL
Temperature
-14°C / 7°F
Dewpoint
-17°C / 1°F
Humidity
78%
Altimeter
29.14" Hg
Pressure
987.2 hPa
Previous

6 hours ago

CYHA 231900Z 17032G38KT 1/8SM SN BLSN VV012 M15/M18 A2919 RMK SN8 SLP892
Observed
Mar-23 @ 19:00 UTC
Wind
  • 170° at 32 KTS
  • Gusting to 38 KTS
Visibility
13 SM
Flight Rules
LIFR
Conditions
Snow, Blowing Snow
Cloud Levels
  • Vertical visibility at 1,200' AGL
Temperature
-15°C / 5°F
Dewpoint
-18°C / -0°F
Humidity
78%
Altimeter
29.19" Hg
Pressure
989.2 hPa
Previous

7 hours ago

CYHA 231800Z 18032G37KT 1/8SM SN BLSN VV004 M15/M18 A2923 RMK SN8 SLP904
Observed
Mar-23 @ 18:00 UTC
Wind
  • 180° at 32 KTS
  • Gusting to 37 KTS
Visibility
13 SM
Flight Rules
LIFR
Conditions
Snow, Blowing Snow
Cloud Levels
  • Vertical visibility at 400' AGL
Temperature
-15°C / 5°F
Dewpoint
-18°C / -0°F
Humidity
78%
Altimeter
29.23" Hg
Pressure
990.4 hPa